createdAt,value
2019-02-18T00:00:57.223Z,77.84
2019-02-18T00:02:05.124Z,77.80
2019-02-18T00:03:11.149Z,77.94
2019-02-18T00:04:17.044Z,77.89
2019-02-18T00:05:23.172Z,77.89
2019-02-18T00:06:29.005Z,78.00
2019-02-18T00:07:34.906Z,78.03
2019-02-18T00:08:41.002Z,77.71
2019-02-18T00:09:48.665Z,77.60
2019-02-18T00:10:55.764Z,77.59
2019-02-18T00:12:03.544Z,77.61
2019-02-18T00:13:31.512Z,77.69
2019-02-18T00:14:39.391Z,77.82
2019-02-18T00:16:06.679Z,77.94
2019-02-18T00:17:13.355Z,77.91
2019-02-18T00:18:19.514Z,77.97
2019-02-18T00:19:26.304Z,78.06
2019-02-18T00:20:33.177Z,77.89
2019-02-18T00:21:39.143Z,77.88
2019-02-18T00:22:45.545Z,77.92
2019-02-18T00:23:53.764Z,77.96
2019-02-18T00:25:00.306Z,78.09
2019-02-18T00:26:06.505Z,78.14
2019-02-18T00:27:12.544Z,78.10
2019-02-18T00:28:18.382Z,78.20
2019-02-18T00:29:24.765Z,78.26
2019-02-18T00:30:30.579Z,78.29
2019-02-18T00:31:36.544Z,78.17
2019-02-18T00:32:42.384Z,78.29
2019-02-18T00:33:48.209Z,78.25
2019-02-18T00:34:53.927Z,78.07
2019-02-18T00:36:00.244Z,78.03
2019-02-18T00:37:06.365Z,78.03
2019-02-18T00:38:13.525Z,77.91
2019-02-18T00:39:19.771Z,77.99
2019-02-18T00:40:25.526Z,78.06
2019-02-18T00:41:32.358Z,78.14
2019-02-18T00:42:39.908Z,78.08
2019-02-18T00:43:47.765Z,78.18
2019-02-18T00:44:54.715Z,78.18
2019-02-18T00:46:01.725Z,78.25
2019-02-18T00:47:08.528Z,78.20
2019-02-18T00:48:14.872Z,78.18
2019-02-18T00:49:22.509Z,78.16
2019-02-18T00:50:28.888Z,78.17
2019-02-18T00:51:36.484Z,78.17
2019-02-18T00:52:42.781Z,78.14
2019-02-18T00:53:50.205Z,78.21
2019-02-18T00:54:56.992Z,78.23
2019-02-18T00:56:03.753Z,78.23
2019-02-18T00:57:10.153Z,78.13
2019-02-18T00:58:17.285Z,78.19
2019-02-18T00:59:23.207Z,78.28
2019-02-18T01:00:29.162Z,78.27
2019-02-18T01:01:35.626Z,78.19
2019-02-18T01:02:41.582Z,78.15
2019-02-18T01:03:47.452Z,78.21
2019-02-18T01:04:53.552Z,78.24
2019-02-18T01:05:59.501Z,78.23
2019-02-18T01:07:05.245Z,78.34
2019-02-18T01:08:11.410Z,78.42
2019-02-18T01:09:17.565Z,78.45
2019-02-18T01:10:24.124Z,78.53
2019-02-18T01:11:31.252Z,78.66
2019-02-18T01:12:39.366Z,78.67
2019-02-18T01:13:46.151Z,78.84
2019-02-18T01:14:53.035Z,78.91
2019-02-18T01:16:00.392Z,78.93
2019-02-18T01:17:07.552Z,79.04
2019-02-18T01:18:14.312Z,79.17
2019-02-18T01:19:20.485Z,79.06
2019-02-18T01:20:27.512Z,79.15
2019-02-18T01:21:34.545Z,79.35
2019-02-18T01:22:40.486Z,79.36
2019-02-18T01:23:47.125Z,79.29
2019-02-18T01:24:54.566Z,79.11
2019-02-18T01:26:00.585Z,79.10
2019-02-18T01:27:07.812Z,79.05
2019-02-18T01:28:13.765Z,79.03
2019-02-18T01:29:19.612Z,78.94
2019-02-18T01:30:27.285Z,78.84
2019-02-18T01:31:34.673Z,78.72
2019-02-18T01:32:40.805Z,78.67
2019-02-18T01:33:46.604Z,78.61
2019-02-18T01:34:52.307Z,78.53
2019-02-18T01:35:58.745Z,78.53
2019-02-18T01:37:04.789Z,78.67
2019-02-18T01:38:10.835Z,78.73
2019-02-18T01:39:16.985Z,78.76
2019-02-18T01:40:23.206Z,78.84
2019-02-18T01:41:29.872Z,78.85
2019-02-18T01:42:37.414Z,78.79
2019-02-18T01:43:44.832Z,78.81
2019-02-18T01:44:51.226Z,78.90
2019-02-18T01:45:57.312Z,79.00
2019-02-18T01:47:03.586Z,79.04
2019-02-18T01:48:10.367Z,78.90
2019-02-18T01:49:16.078Z,78.84
2019-02-18T01:50:22.985Z,78.78
2019-02-18T01:51:30.552Z,78.78
2019-02-18T01:52:38.265Z,78.73
2019-02-18T01:53:44.645Z,78.73
2019-02-18T01:54:51.692Z,78.76
2019-02-18T01:55:57.825Z,78.72
2019-02-18T01:57:04.191Z,78.82
2019-02-18T01:58:12.115Z,78.90
2019-02-18T01:59:17.814Z,78.99
2019-02-18T02:00:23.994Z,79.21
2019-02-18T02:01:29.936Z,79.39
2019-02-18T02:02:35.735Z,79.46
2019-02-18T02:03:41.533Z,79.36
2019-02-18T02:04:47.346Z,79.51
2019-02-18T02:05:53.141Z,79.52
2019-02-18T02:06:59.185Z,79.57
2019-02-18T02:08:06.043Z,79.59
2019-02-18T02:09:13.516Z,79.69
2019-02-18T02:10:40.344Z,79.84
2019-02-18T02:11:47.486Z,79.91
2019-02-18T02:12:57.765Z,80.13
2019-02-18T02:14:03.999Z,80.16
2019-02-18T02:15:21.427Z,80.12
2019-02-18T02:16:28.108Z,80.05
2019-02-18T02:17:33.847Z,79.96
2019-02-18T02:18:40.066Z,79.94
2019-02-18T02:19:46.825Z,80.06
2019-02-18T02:20:52.713Z,80.21
2019-02-18T02:21:59.425Z,80.11
2019-02-18T02:23:06.227Z,80.11
2019-02-18T02:24:12.386Z,80.04
2019-02-18T02:25:18.825Z,80.16
2019-02-18T02:26:25.746Z,80.27
2019-02-18T02:27:33.246Z,80.34
2019-02-18T02:28:39.226Z,80.55
2019-02-18T02:29:45.073Z,80.27
2019-02-18T02:30:51.422Z,80.13
2019-02-18T02:31:57.307Z,80.11
2019-02-18T02:33:02.988Z,80.13
2019-02-18T02:34:08.693Z,80.20
2019-02-18T02:35:14.686Z,80.24
2019-02-18T02:36:21.067Z,80.33
2019-02-18T02:37:26.910Z,80.47
2019-02-18T02:38:32.967Z,80.42
2019-02-18T02:39:39.560Z,80.46
2019-02-18T02:40:46.210Z,80.33
2019-02-18T02:41:53.777Z,80.32
2019-02-18T02:42:59.826Z,80.37
2019-02-18T02:44:06.711Z,80.53
2019-02-18T02:45:13.310Z,80.58
2019-02-18T02:46:19.376Z,80.76
2019-02-18T02:47:26.186Z,80.77
2019-02-18T02:48:32.106Z,80.82
2019-02-18T02:49:38.947Z,80.81
2019-02-18T02:50:45.398Z,80.94
2019-02-18T02:51:51.187Z,80.80
2019-02-18T02:54:14.893Z,80.79
2019-02-18T02:55:21.077Z,80.86
2019-02-18T02:56:28.351Z,80.82
2019-02-18T02:57:35.186Z,80.70
2019-02-18T02:58:41.194Z,80.60
2019-02-18T02:59:46.906Z,80.57
2019-02-18T03:00:52.746Z,80.62
2019-02-18T03:01:58.473Z,80.49
2019-02-18T03:03:04.551Z,80.53
2019-02-18T03:04:10.587Z,80.59
2019-02-18T03:05:16.451Z,80.60
2019-02-18T03:06:22.326Z,80.56
2019-02-18T03:07:28.087Z,80.69
2019-02-18T03:08:33.966Z,80.70
2019-02-18T03:09:41.268Z,80.64
2019-02-18T03:10:47.386Z,80.57
2019-02-18T03:11:53.706Z,80.65
2019-02-18T03:13:01.626Z,80.83
2019-02-18T03:14:09.126Z,80.75
2019-02-18T03:15:16.615Z,80.78
2019-02-18T03:16:24.108Z,80.85
2019-02-18T03:17:30.427Z,80.72
2019-02-18T03:18:37.549Z,80.59
2019-02-18T03:19:44.747Z,80.62
2019-02-18T03:20:50.839Z,80.63
2019-02-18T03:21:56.868Z,80.55
2019-02-18T03:23:04.946Z,80.54
2019-02-18T03:24:11.313Z,80.54
2019-02-18T03:25:28.722Z,80.65
2019-02-18T03:26:35.508Z,80.72
2019-02-18T03:27:41.793Z,80.86
2019-02-18T03:29:18.312Z,80.92
2019-02-18T03:30:47.981Z,80.95
2019-02-18T03:31:54.208Z,81.11
2019-02-18T03:33:00.608Z,80.97
2019-02-18T03:34:14.048Z,80.91
2019-02-18T03:35:19.807Z,80.75
2019-02-18T03:36:26.076Z,80.75
2019-02-18T03:37:31.779Z,80.85
2019-02-18T03:38:37.528Z,80.78
2019-02-18T03:39:43.363Z,80.77
2019-02-18T03:40:49.433Z,80.86
2019-02-18T03:41:57.807Z,80.79
2019-02-18T03:43:03.931Z,80.84
2019-02-18T03:44:31.067Z,80.81
2019-02-18T03:45:37.761Z,80.85
2019-02-18T03:46:44.390Z,80.87
2019-02-18T03:47:50.878Z,80.85
2019-02-18T03:48:56.647Z,80.73
2019-02-18T03:50:03.088Z,80.65
2019-02-18T03:51:11.547Z,80.70
2019-02-18T03:52:17.747Z,80.84
2019-02-18T03:53:23.912Z,81.00
2019-02-18T03:54:30.349Z,81.12
2019-02-18T03:55:36.436Z,81.10
2019-02-18T03:56:43.949Z,81.00
2019-02-18T03:57:50.037Z,80.87
2019-02-18T03:58:55.839Z,80.86
2019-02-18T04:00:01.629Z,80.85
2019-02-18T04:01:07.608Z,80.85
2019-02-18T04:02:13.517Z,80.92
2019-02-18T04:03:19.514Z,80.94
2019-02-18T04:04:25.450Z,80.90
2019-02-18T04:05:31.153Z,80.95
2019-02-18T04:06:37.667Z,81.00
2019-02-18T04:07:43.660Z,81.11
2019-02-18T04:08:49.431Z,81.12
2019-02-18T04:09:56.652Z,81.04
2019-02-18T04:11:02.871Z,81.06
2019-02-18T04:12:09.527Z,81.21
2019-02-18T04:13:16.374Z,81.20
2019-02-18T04:14:22.327Z,81.24
2019-02-18T04:15:28.942Z,81.09
2019-02-18T04:16:34.711Z,80.93
2019-02-18T04:17:41.661Z,80.93
2019-02-18T04:18:48.413Z,80.88
2019-02-18T04:19:54.680Z,80.86
2019-02-18T04:21:00.844Z,80.82
2019-02-18T04:22:08.794Z,80.88
2019-02-18T04:23:15.125Z,81.01
2019-02-18T04:24:21.702Z,80.92
2019-02-18T04:25:28.009Z,80.98
2019-02-18T04:26:33.734Z,81.01
2019-02-18T04:27:40.491Z,81.09
2019-02-18T04:28:46.972Z,81.10
2019-02-18T04:29:52.564Z,81.04
2019-02-18T04:30:58.217Z,81.12
2019-02-18T04:32:03.982Z,81.11
2019-02-18T04:33:09.729Z,81.17
2019-02-18T04:34:15.381Z,81.23
2019-02-18T04:35:24.974Z,81.26
2019-02-18T04:36:30.713Z,81.26
2019-02-18T04:37:36.690Z,81.34
2019-02-18T04:38:53.609Z,81.47
2019-02-18T04:39:51.692Z,81.49
2019-02-18T04:40:57.971Z,81.46
2019-02-18T04:42:04.368Z,81.61
2019-02-18T04:43:10.284Z,81.63
2019-02-18T04:44:17.432Z,81.54
2019-02-18T04:45:24.002Z,81.57
2019-02-18T04:46:30.303Z,81.57
2019-02-18T04:47:36.934Z,81.58
2019-02-18T04:48:43.885Z,81.56
2019-02-18T04:49:50.652Z,81.52
2019-02-18T04:50:57.110Z,81.60
2019-02-18T04:52:03.371Z,81.64
2019-02-18T04:53:10.053Z,81.63
2019-02-18T04:54:16.332Z,81.67
2019-02-18T04:55:22.123Z,81.61
2019-02-18T04:56:29.483Z,81.63
2019-02-18T04:57:35.972Z,81.57
2019-02-18T04:58:42.132Z,81.59
2019-02-18T04:59:47.850Z,81.56
2019-02-18T05:00:53.603Z,81.70
2019-02-18T05:01:59.516Z,81.66
2019-02-18T05:03:05.222Z,81.58
2019-02-18T05:04:10.930Z,81.53
2019-02-18T05:05:16.684Z,81.47
2019-02-18T05:06:25.373Z,81.50
2019-02-18T05:07:30.212Z,81.42
2019-02-18T05:08:36.050Z,81.30
2019-02-18T05:09:42.694Z,81.27
2019-02-18T05:10:48.656Z,81.36
2019-02-18T05:11:55.134Z,81.43
2019-02-18T05:13:01.637Z,81.55
2019-02-18T05:14:07.843Z,81.49
2019-02-18T05:15:14.620Z,81.45
2019-02-18T05:16:21.874Z,81.58
2019-02-18T05:17:27.802Z,81.54
2019-02-18T05:18:34.412Z,81.53
2019-02-18T05:19:40.748Z,81.52
2019-02-18T05:20:46.422Z,81.45
2019-02-18T05:21:53.314Z,81.56
2019-02-18T05:22:59.803Z,81.41
2019-02-18T05:24:05.685Z,81.58
2019-02-18T05:25:14.052Z,81.65
2019-02-18T05:26:21.023Z,81.62
2019-02-18T05:27:33.211Z,81.63
2019-02-18T05:28:35.613Z,81.60
2019-02-18T05:29:41.495Z,81.51
2019-02-18T05:30:47.262Z,81.68
2019-02-18T05:31:52.897Z,81.80
2019-02-18T05:32:58.556Z,81.66
2019-02-18T05:34:04.257Z,81.58
2019-02-18T05:35:10.081Z,81.54
2019-02-18T05:36:15.854Z,81.59
2019-02-18T05:37:21.595Z,81.62
2019-02-18T05:38:27.449Z,81.68
2019-02-18T05:39:33.204Z,81.71
2019-02-18T05:40:38.912Z,81.70
2019-02-18T05:41:46.389Z,81.75
2019-02-18T05:42:54.013Z,81.80
2019-02-18T05:44:00.053Z,81.90
2019-02-18T05:45:09.494Z,81.86
2019-02-18T05:46:16.577Z,81.88
2019-02-18T05:47:22.283Z,81.93
2019-02-18T05:48:28.712Z,81.91
2019-02-18T05:49:35.079Z,81.94
2019-02-18T05:50:41.212Z,81.87
2019-02-18T05:51:47.930Z,81.76
2019-02-18T05:52:54.792Z,81.82
2019-02-18T05:54:00.933Z,81.76
2019-02-18T05:55:08.768Z,81.79
2019-02-18T05:56:14.945Z,81.84
2019-02-18T05:57:22.937Z,81.88
2019-02-18T05:58:30.363Z,81.91
2019-02-18T05:59:36.273Z,81.95
2019-02-18T06:00:42.226Z,81.86
2019-02-18T06:01:47.949Z,81.87
2019-02-18T06:02:53.693Z,81.87
2019-02-18T06:04:00.683Z,81.97
2019-02-18T06:05:07.130Z,81.98
2019-02-18T06:06:12.793Z,81.89
2019-02-18T06:07:18.515Z,81.84
2019-02-18T06:08:24.246Z,81.64
2019-02-18T06:09:30.727Z,81.73
2019-02-18T06:10:38.470Z,81.75
2019-02-18T06:11:45.173Z,81.68
2019-02-18T06:12:51.413Z,81.66
2019-02-18T06:13:57.145Z,81.56
2019-02-18T06:15:04.013Z,81.55
2019-02-18T06:16:10.853Z,81.59
2019-02-18T06:17:17.454Z,81.68
2019-02-18T06:18:23.733Z,81.67
2019-02-18T06:19:30.373Z,81.67
2019-02-18T06:20:37.109Z,81.66
2019-02-18T06:21:43.705Z,81.64
2019-02-18T06:22:50.773Z,81.65
2019-02-18T06:23:56.903Z,81.68
2019-02-18T06:25:03.256Z,81.65
2019-02-18T06:26:10.161Z,81.71
2019-02-18T06:27:18.072Z,81.64
2019-02-18T06:28:24.933Z,81.68
2019-02-18T06:29:31.337Z,81.63
2019-02-18T06:30:37.099Z,81.57
2019-02-18T06:31:42.844Z,81.57
2019-02-18T06:32:49.603Z,81.57
2019-02-18T06:33:55.342Z,81.54
2019-02-18T06:35:01.166Z,81.58
2019-02-18T06:36:07.043Z,81.58
2019-02-18T06:37:12.892Z,81.62
2019-02-18T06:38:18.711Z,81.70
2019-02-18T06:39:24.458Z,81.73
2019-02-18T06:40:30.265Z,81.69
2019-02-18T06:41:36.594Z,81.53
2019-02-18T06:42:44.123Z,81.59
2019-02-18T06:43:50.367Z,81.59
2019-02-18T06:45:14.236Z,81.55
2019-02-18T06:46:27.173Z,81.55
2019-02-18T06:47:33.094Z,81.54
2019-02-18T06:48:46.834Z,81.52
2019-02-18T06:49:56.054Z,81.47
2019-02-18T06:51:03.573Z,81.54
2019-02-18T06:52:11.825Z,81.57
2019-02-18T06:53:17.744Z,81.64
2019-02-18T06:54:27.173Z,81.65
2019-02-18T06:55:33.847Z,81.65
2019-02-18T06:56:43.260Z,81.64
2019-02-18T06:58:18.262Z,81.59
2019-02-18T06:59:29.891Z,81.62
2019-02-18T07:01:02.288Z,81.70
2019-02-18T07:02:21.631Z,81.68
2019-02-18T07:03:29.745Z,81.80
2019-02-18T07:04:37.768Z,81.95
2019-02-18T07:05:47.864Z,81.96
2019-02-18T07:06:59.443Z,81.96
2019-02-18T07:08:09.786Z,82.13
2019-02-18T07:09:31.997Z,82.07
2019-02-18T07:10:43.064Z,82.00
2019-02-18T07:11:54.363Z,82.20
2019-02-18T07:13:00.716Z,82.17
2019-02-18T07:14:07.406Z,82.21
2019-02-18T07:15:14.276Z,82.15
2019-02-18T07:16:20.898Z,82.31
2019-02-18T07:17:28.847Z,82.35
2019-02-18T07:18:35.441Z,82.29
2019-02-18T07:19:41.894Z,82.37
2019-02-18T07:20:48.784Z,82.30
2019-02-18T07:21:56.035Z,82.46
2019-02-18T07:23:01.999Z,82.36
2019-02-18T07:24:09.293Z,82.19
2019-02-18T07:25:15.027Z,82.16
2019-02-18T07:26:21.974Z,82.19
2019-02-18T07:27:28.765Z,82.31
2019-02-18T07:28:35.227Z,82.33
2019-02-18T07:29:41.975Z,82.15
2019-02-18T07:30:47.919Z,82.24
2019-02-18T07:31:53.671Z,82.37
2019-02-18T07:32:59.305Z,82.09
2019-02-18T07:34:04.996Z,82.11
2019-02-18T07:35:10.724Z,82.22
2019-02-18T07:36:16.405Z,82.27
2019-02-18T07:37:22.069Z,82.26
2019-02-18T07:38:27.750Z,82.26
2019-02-18T07:39:33.428Z,82.19
2019-02-18T07:40:39.715Z,82.20
2019-02-18T07:41:46.534Z,82.27
2019-02-18T07:42:53.536Z,82.17
2019-02-18T07:44:00.461Z,82.10
2019-02-18T07:45:10.227Z,82.00
2019-02-18T07:46:17.626Z,81.91
2019-02-18T07:47:24.246Z,82.02
2019-02-18T07:48:30.135Z,82.12
2019-02-18T07:49:36.914Z,82.14
2019-02-18T07:50:43.254Z,82.15
2019-02-18T07:51:50.643Z,82.33
2019-02-18T07:52:57.693Z,82.33
2019-02-18T07:54:03.515Z,82.32
2019-02-18T07:55:10.112Z,82.20
2019-02-18T07:56:16.454Z,82.21
2019-02-18T07:57:22.296Z,82.25
2019-02-18T07:58:28.880Z,82.21
2019-02-18T07:59:36.214Z,81.96
2019-02-18T08:00:41.964Z,82.00
2019-02-18T08:01:48.788Z,82.11
2019-02-18T08:02:54.570Z,82.02
2019-02-18T08:04:00.326Z,81.93
2019-02-18T08:05:07.568Z,81.86
2019-02-18T08:06:13.144Z,81.71
2019-02-18T08:07:18.888Z,81.89
2019-02-18T08:08:24.558Z,81.63
2019-02-18T08:09:30.338Z,81.86
2019-02-18T08:10:36.104Z,81.79
2019-02-18T08:11:43.039Z,82.07
2019-02-18T08:12:49.335Z,82.21
2019-02-18T08:13:55.557Z,81.97
2019-02-18T08:15:01.136Z,81.89
2019-02-18T08:16:07.374Z,81.77
2019-02-18T08:17:14.055Z,81.71
2019-02-18T08:18:19.836Z,81.54
2019-02-18T08:19:26.224Z,81.56
2019-02-18T08:20:32.487Z,81.50
2019-02-18T08:21:38.425Z,81.40
2019-02-18T08:22:44.547Z,81.37
2019-02-18T08:23:59.719Z,81.41
2019-02-18T08:24:59.996Z,81.41
2019-02-18T08:26:06.893Z,81.42
2019-02-18T08:27:13.344Z,81.22
2019-02-18T08:28:20.434Z,81.35
2019-02-18T08:29:26.625Z,81.43
2019-02-18T08:30:32.426Z,81.35
2019-02-18T08:31:38.796Z,81.47
2019-02-18T08:32:44.515Z,81.38
2019-02-18T08:33:50.176Z,81.42
2019-02-18T08:34:55.977Z,81.45
2019-02-18T08:36:01.726Z,81.33
2019-02-18T08:37:07.496Z,81.66
2019-02-18T08:38:13.227Z,81.48
2019-02-18T08:39:18.857Z,81.29
2019-02-18T08:40:24.617Z,81.49
2019-02-18T08:41:30.903Z,81.40
2019-02-18T08:42:38.006Z,81.51
2019-02-18T08:43:44.066Z,81.57
2019-02-18T08:44:50.566Z,81.73
2019-02-18T08:45:58.037Z,81.69
2019-02-18T08:47:04.109Z,81.53
2019-02-18T08:48:11.695Z,81.60
2019-02-18T08:49:17.707Z,81.63
2019-02-18T08:50:23.395Z,81.70
2019-02-18T08:51:29.895Z,81.60
2019-02-18T08:52:35.805Z,81.47
2019-02-18T08:53:42.026Z,81.47
2019-02-18T08:54:56.334Z,81.54
2019-02-18T08:55:56.267Z,81.53
2019-02-18T08:57:02.976Z,81.66
2019-02-18T08:58:09.465Z,81.48
2019-02-18T08:59:15.426Z,81.61
2019-02-18T09:00:21.155Z,81.58
2019-02-18T09:01:26.821Z,81.69
2019-02-18T09:02:34.189Z,81.51
2019-02-18T09:03:39.949Z,81.52
2019-02-18T09:04:45.746Z,81.22
2019-02-18T09:05:51.414Z,81.19
2019-02-18T09:06:57.697Z,81.28
2019-02-18T09:08:03.386Z,81.37
2019-02-18T09:09:09.118Z,81.42
2019-02-18T09:10:15.490Z,81.56
2019-02-18T09:11:21.243Z,81.37
2019-02-18T09:12:27.046Z,81.39
2019-02-18T09:13:34.819Z,81.49
2019-02-18T09:14:40.506Z,81.11
2019-02-18T09:15:47.218Z,81.16
2019-02-18T09:16:53.027Z,80.98
2019-02-18T09:17:59.454Z,81.07
2019-02-18T09:19:05.325Z,81.21
2019-02-18T09:20:12.509Z,81.22
2019-02-18T09:21:18.538Z,81.38
2019-02-18T09:22:39.725Z,81.25
2019-02-18T09:23:47.087Z,81.12
2019-02-18T09:24:54.885Z,81.36
2019-02-18T09:26:00.952Z,81.34
2019-02-18T09:27:06.990Z,81.27
2019-02-18T09:28:12.816Z,81.20
2019-02-18T09:29:19.339Z,81.23
2019-02-18T09:30:26.956Z,81.20
2019-02-18T09:31:33.527Z,81.27
2019-02-18T09:32:39.175Z,81.30
2019-02-18T09:33:45.036Z,81.00
2019-02-18T09:34:53.170Z,81.03
2019-02-18T09:35:58.167Z,80.86
2019-02-18T09:37:03.907Z,80.93
2019-02-18T09:38:09.729Z,80.67
2019-02-18T09:39:30.775Z,80.60
2019-02-18T09:40:29.076Z,80.63
2019-02-18T09:41:35.103Z,80.83
2019-02-18T09:42:41.776Z,80.79
2019-02-18T09:43:48.812Z,80.73
2019-02-18T09:44:54.920Z,80.52
2019-02-18T09:46:01.496Z,80.57
2019-02-18T09:47:10.567Z,80.28
2019-02-18T09:48:16.265Z,80.29
2019-02-18T09:49:22.236Z,80.24
2019-02-18T09:50:29.389Z,80.02
2019-02-18T09:51:35.456Z,80.03
2019-02-18T09:52:41.277Z,80.37
2019-02-18T09:53:47.098Z,80.12
2019-02-18T09:54:53.621Z,80.20
2019-02-18T09:55:59.796Z,80.11
2019-02-18T09:57:06.146Z,80.00
2019-02-18T09:58:12.248Z,79.97
2019-02-18T09:59:19.452Z,79.76
2019-02-18T10:00:25.217Z,79.71
2019-02-18T10:01:30.858Z,79.50
2019-02-18T10:02:36.741Z,79.17
2019-02-18T10:03:42.436Z,79.22
2019-02-18T10:04:48.014Z,79.09
2019-02-18T10:05:54.856Z,79.17
2019-02-18T10:07:00.610Z,78.93
2019-02-18T10:08:06.377Z,78.67
2019-02-18T10:09:12.222Z,78.58
2019-02-18T10:10:18.057Z,78.64
2019-02-18T10:11:24.345Z,78.36
2019-02-18T10:12:30.426Z,78.36
2019-02-18T10:13:36.508Z,78.39
2019-02-18T10:14:43.445Z,78.43
2019-02-18T10:15:49.486Z,78.04
2019-02-18T10:16:55.653Z,77.94
2019-02-18T10:18:01.956Z,77.93
2019-02-18T10:19:08.577Z,77.70
2019-02-18T10:20:15.657Z,77.61
2019-02-18T10:21:21.356Z,77.61
2019-02-18T10:22:28.017Z,77.45
2019-02-18T10:23:34.495Z,77.30
2019-02-18T10:24:50.770Z,77.00
2019-02-18T10:25:48.117Z,76.92
2019-02-18T10:26:54.808Z,76.89
2019-02-18T10:28:01.542Z,76.68
2019-02-18T10:29:08.259Z,76.63
2019-02-18T10:30:15.982Z,76.62
2019-02-18T10:31:21.621Z,76.45
2019-02-18T10:32:27.297Z,76.36
2019-02-18T10:33:33.056Z,76.21
2019-02-18T10:34:38.788Z,76.17
2019-02-18T10:35:44.600Z,76.03
2019-02-18T10:36:50.259Z,75.92
2019-02-18T10:37:55.971Z,75.49
2019-02-18T10:39:01.641Z,75.46
2019-02-18T10:40:10.857Z,75.25
2019-02-18T10:41:19.301Z,75.18
2019-02-18T10:42:26.195Z,75.00
2019-02-18T10:43:32.824Z,74.64
2019-02-18T10:44:40.198Z,74.50
2019-02-18T10:45:46.457Z,74.53
2019-02-18T10:46:52.157Z,74.39
2019-02-18T10:47:59.027Z,74.36
2019-02-18T10:49:18.933Z,74.30
2019-02-18T10:50:14.713Z,74.17
2019-02-18T10:51:21.258Z,74.13
2019-02-18T10:52:27.826Z,74.01
2019-02-18T10:53:34.429Z,73.96
2019-02-18T10:54:40.661Z,73.82
2019-02-18T10:55:47.217Z,73.84
2019-02-18T10:56:53.597Z,73.70
2019-02-18T10:58:00.537Z,73.63
2019-02-18T10:59:06.314Z,73.57
2019-02-18T11:00:17.554Z,73.55
2019-02-18T11:01:23.720Z,73.56
2019-02-18T11:02:29.406Z,73.39
2019-02-18T11:03:35.159Z,73.09
2019-02-18T11:04:41.866Z,73.14
2019-02-18T11:05:47.552Z,72.86
2019-02-18T11:06:53.267Z,72.92
2019-02-18T11:07:58.952Z,72.59
2019-02-18T11:09:05.936Z,72.82
2019-02-18T11:10:18.262Z,72.84
2019-02-18T11:11:23.968Z,72.72
2019-02-18T11:12:29.707Z,72.71
2019-02-18T11:13:36.016Z,72.62
2019-02-18T11:14:43.197Z,72.64
2019-02-18T11:15:49.598Z,72.67
2019-02-18T11:16:55.891Z,72.64
2019-02-18T11:18:01.965Z,72.48
2019-02-18T11:19:07.716Z,72.32
2019-02-18T11:20:14.976Z,71.90
2019-02-18T11:21:20.731Z,71.76
2019-02-18T11:22:27.118Z,71.64
2019-02-18T11:23:32.939Z,71.68
2019-02-18T11:24:39.568Z,71.56
2019-02-18T11:25:45.932Z,71.48
2019-02-18T11:26:52.460Z,71.30
2019-02-18T11:27:58.457Z,71.28
2019-02-18T11:29:04.716Z,71.19
2019-02-18T11:30:17.939Z,70.88
2019-02-18T11:31:23.883Z,70.52
2019-02-18T11:32:29.618Z,70.44
2019-02-18T11:33:35.463Z,70.39
2019-02-18T11:34:42.337Z,70.29
2019-02-18T11:35:48.277Z,70.03
2019-02-18T11:36:54.327Z,70.09
2019-02-18T11:38:00.073Z,70.22
2019-02-18T11:39:11.807Z,70.17
2019-02-18T11:40:20.788Z,70.12
2019-02-18T11:41:28.246Z,69.99
2019-02-18T11:42:37.477Z,69.86
2019-02-18T11:43:44.620Z,69.64
2019-02-18T11:44:51.297Z,69.57
2019-02-18T11:45:57.467Z,69.53
2019-02-18T11:47:04.711Z,69.33
2019-02-18T11:48:11.409Z,69.29
2019-02-18T11:49:17.348Z,69.16
2019-02-18T11:50:23.586Z,68.96
2019-02-18T11:51:29.607Z,68.70
2019-02-18T11:52:35.868Z,68.70
2019-02-18T11:53:41.928Z,68.59
2019-02-18T11:54:47.897Z,68.51
2019-02-18T11:55:54.142Z,68.24
2019-02-18T11:57:00.750Z,68.29
2019-02-18T11:58:06.653Z,68.36
2019-02-18T11:59:12.708Z,68.20
2019-02-18T12:00:19.441Z,68.33
2019-02-18T12:01:25.620Z,67.94
2019-02-18T12:02:31.968Z,67.98
2019-02-18T12:03:37.703Z,67.86
2019-02-18T12:04:43.449Z,67.79
2019-02-18T12:05:51.726Z,67.39
2019-02-18T12:06:57.368Z,67.32
2019-02-18T12:08:03.118Z,67.03
2019-02-18T12:09:08.889Z,66.91
2019-02-18T12:10:15.008Z,66.52
2019-02-18T12:11:20.867Z,66.39
2019-02-18T12:12:26.903Z,66.37
2019-02-18T12:13:33.080Z,66.54
2019-02-18T12:14:39.709Z,66.80
2019-02-18T12:15:46.676Z,66.86
2019-02-18T12:16:53.861Z,66.67
2019-02-18T12:17:59.690Z,66.31
2019-02-18T12:19:05.467Z,66.40
2019-02-18T12:20:15.427Z,66.33
2019-02-18T12:21:21.148Z,66.23
2019-02-18T12:22:26.879Z,66.35
2019-02-18T12:23:32.610Z,66.33
2019-02-18T12:24:39.219Z,66.33
2019-02-18T12:25:46.357Z,66.05
2019-02-18T12:26:52.269Z,65.71
2019-02-18T12:27:58.857Z,65.37
2019-02-18T12:29:05.789Z,65.37
2019-02-18T12:30:15.421Z,65.28
2019-02-18T12:31:21.875Z,65.17
2019-02-18T12:32:27.661Z,64.95
2019-02-18T12:33:33.359Z,64.46
2019-02-18T12:34:39.351Z,64.19
2019-02-18T12:35:45.378Z,64.19
2019-02-18T12:37:57.480Z,63.96
2019-02-18T12:39:03.219Z,63.92
2019-02-18T12:40:15.285Z,63.84
2019-02-18T12:41:20.927Z,63.84
2019-02-18T12:42:27.289Z,63.31
2019-02-18T12:43:34.559Z,63.30
2019-02-18T12:44:40.875Z,63.25
2019-02-18T12:45:47.527Z,63.26
2019-02-18T12:46:53.707Z,63.02
2019-02-18T12:47:59.930Z,63.02
2019-02-18T12:49:06.778Z,62.66
2019-02-18T12:50:13.247Z,62.66
2019-02-18T12:51:19.407Z,62.82
2019-02-18T12:52:25.501Z,62.51
2019-02-18T12:53:32.070Z,62.53
2019-02-18T12:54:38.219Z,62.65
2019-02-18T12:55:44.437Z,62.53
2019-02-18T12:56:51.296Z,62.58
2019-02-18T12:57:59.309Z,62.63
2019-02-18T12:59:05.392Z,62.70
2019-02-18T13:00:15.026Z,62.51
2019-02-18T13:01:21.897Z,62.65
2019-02-18T13:02:27.944Z,62.65
2019-02-18T13:03:33.588Z,62.74
2019-02-18T13:04:39.321Z,62.83
2019-02-18T13:05:45.050Z,62.75
2019-02-18T13:06:50.830Z,62.67
2019-02-18T13:07:56.578Z,62.54
2019-02-18T13:09:02.699Z,62.37
2019-02-18T13:10:10.371Z,62.43
2019-02-18T13:11:16.241Z,62.57
2019-02-18T13:12:22.070Z,62.42
2019-02-18T13:13:31.366Z,62.43
2019-02-18T13:14:37.039Z,62.46
2019-02-18T13:15:43.281Z,62.45
2019-02-18T13:16:49.969Z,62.67
2019-02-18T13:17:55.709Z,62.67
2019-02-18T13:19:02.208Z,62.97
2019-02-18T13:20:09.713Z,62.78
2019-02-18T13:21:15.899Z,62.77
2019-02-18T13:22:22.219Z,62.85
2019-02-18T13:23:28.978Z,62.85
2019-02-18T13:24:34.850Z,62.73
2019-02-18T13:25:47.407Z,62.49
2019-02-18T13:26:49.080Z,62.49
2019-02-18T13:27:55.447Z,62.30
2019-02-18T13:29:02.461Z,62.29
2019-02-18T13:30:18.228Z,62.29
2019-02-18T13:31:24.931Z,62.65
2019-02-18T13:32:30.699Z,62.51
2019-02-18T13:33:37.369Z,62.47
2019-02-18T13:34:43.690Z,62.24
2019-02-18T13:35:49.560Z,62.24
2019-02-18T13:36:58.147Z,62.25
2019-02-18T13:38:04.136Z,62.44
2019-02-18T13:39:11.012Z,62.49
2019-02-18T13:40:18.839Z,62.51
2019-02-18T13:41:25.129Z,62.30
2019-02-18T13:42:33.359Z,62.30
2019-02-18T13:43:39.890Z,62.29
2019-02-18T13:44:46.873Z,62.06
2019-02-18T13:45:53.608Z,62.31
2019-02-18T13:47:00.198Z,62.31
2019-02-18T13:48:06.088Z,62.08
2019-02-18T13:49:11.949Z,62.14
2019-02-18T13:50:19.139Z,62.09
2019-02-18T13:51:26.053Z,62.06
2019-02-18T13:52:31.853Z,62.01
2019-02-18T13:53:38.564Z,62.04
2019-02-18T13:54:45.496Z,61.99
2019-02-18T13:55:52.561Z,61.90
2019-02-18T13:56:59.498Z,62.11
2019-02-18T13:58:05.918Z,62.11
2019-02-18T13:59:11.927Z,62.36
2019-02-18T14:00:21.842Z,62.51
2019-02-18T14:01:28.349Z,62.69
2019-02-18T14:02:34.469Z,62.81
2019-02-18T14:03:40.638Z,63.05
2019-02-18T14:04:47.807Z,63.29
2019-02-18T14:05:54.566Z,63.29
2019-02-18T14:07:02.839Z,62.91
2019-02-18T14:08:09.229Z,62.85
2019-02-18T14:09:15.276Z,62.83
2019-02-18T14:10:22.237Z,62.78
2019-02-18T14:11:28.281Z,62.80
2019-02-18T14:12:34.749Z,62.85
2019-02-18T14:13:41.987Z,62.91
2019-02-18T14:14:47.867Z,62.95
2019-02-18T14:15:55.059Z,63.03
2019-02-18T14:17:02.749Z,63.12
2019-02-18T14:18:09.099Z,63.14
2019-02-18T14:19:15.913Z,63.14
2019-02-18T14:20:22.450Z,62.91
2019-02-18T14:21:29.296Z,62.97
2019-02-18T14:22:36.067Z,62.97
2019-02-18T14:23:42.289Z,63.01
2019-02-18T14:24:49.418Z,63.01